createdAt,value
2019-04-02T00:00:17.496Z,1016.7
2019-04-02T00:01:16.943Z,1016.7
2019-04-02T00:02:16.963Z,1016.68
2019-04-02T00:03:16.974Z,1016.65
2019-04-02T00:04:16.990Z,1016.62
2019-04-02T00:05:17.003Z,1016.61
2019-04-02T00:06:17.023Z,1016.59
2019-04-02T00:08:17.048Z,1016.62
2019-04-02T00:09:17.067Z,1016.62
2019-04-02T00:10:17.078Z,1016.58
2019-04-02T00:11:17.096Z,1016.55
2019-04-02T00:12:17.107Z,1016.52
2019-04-02T00:13:17.126Z,1016.55
2019-04-02T00:14:17.585Z,1016.55
2019-04-02T00:15:17.152Z,1016.57
2019-04-02T00:16:17.166Z,1016.51
2019-04-02T00:17:17.183Z,1016.49
2019-04-02T00:18:17.200Z,1016.48
2019-04-02T00:19:17.213Z,1016.46
2019-04-02T00:20:17.229Z,1016.5
2019-04-02T00:21:17.248Z,1016.45
2019-04-02T00:22:17.261Z,1016.41
2019-04-02T00:24:17.289Z,1016.37
2019-04-02T00:25:17.301Z,1016.38
2019-04-02T00:26:17.317Z,1016.39
2019-04-02T00:27:17.327Z,1016.34
2019-04-02T00:28:19.048Z,1016.37
2019-04-02T00:29:17.722Z,1016.33
2019-04-02T00:30:17.378Z,1016.32
2019-04-02T00:31:17.391Z,1016.31
2019-04-02T00:32:17.406Z,1016.33
2019-04-02T00:33:17.417Z,1016.29
2019-04-02T00:34:17.430Z,1016.3
2019-04-02T00:35:17.449Z,1016.28
2019-04-02T00:36:17.461Z,1016.31
2019-04-02T00:37:17.479Z,1016.27
2019-04-02T00:38:17.488Z,1016.25
2019-04-02T00:40:17.518Z,1016.24
2019-04-02T00:41:17.533Z,1016.24
2019-04-02T00:42:17.551Z,1016.21
2019-04-02T00:43:17.562Z,1016.23
2019-04-02T00:44:17.581Z,1016.2
2019-04-02T00:45:17.590Z,1016.2
2019-04-02T00:46:17.610Z,1016.16
2019-04-02T00:47:18.307Z,1016.16
2019-04-02T00:48:17.639Z,1016.15
2019-04-02T00:49:17.649Z,1016.14
2019-04-02T00:50:17.667Z,1016.12
2019-04-02T00:51:17.681Z,1016.09
2019-04-02T00:52:17.697Z,1016.1
2019-04-02T00:53:17.712Z,1016.08
2019-04-02T00:55:17.742Z,1016
2019-04-02T00:56:17.757Z,1016.01
2019-04-02T00:57:17.765Z,1015.98
2019-04-02T00:58:17.780Z,1016
2019-04-02T00:59:17.799Z,1015.97
2019-04-02T01:00:18.418Z,1016.02
2019-04-02T01:01:17.829Z,1015.98
2019-04-02T01:02:17.847Z,1015.95
2019-04-02T01:03:17.856Z,1015.93
2019-04-02T01:04:17.871Z,1015.93
2019-04-02T01:05:17.881Z,1015.9
2019-04-02T01:06:17.901Z,1015.9
2019-04-02T01:07:17.910Z,1015.88
2019-04-02T01:08:17.925Z,1015.83
2019-04-02T01:09:17.942Z,1015.82
2019-04-02T01:10:17.958Z,1015.82
2019-04-02T01:11:17.973Z,1015.73
2019-04-02T01:12:19.080Z,1015.71
2019-04-02T01:13:17.997Z,1015.76
2019-04-02T01:14:18.012Z,1015.76
2019-04-02T01:15:18.030Z,1015.74
2019-04-02T01:16:18.040Z,1015.68
2019-04-02T01:17:18.059Z,1015.68
2019-04-02T01:18:18.068Z,1015.66
2019-04-02T01:19:18.082Z,1015.62
2019-04-02T01:20:18.102Z,1015.64
2019-04-02T01:21:18.116Z,1015.64
2019-04-02T01:22:18.126Z,1015.64
2019-04-02T01:23:18.144Z,1015.63
2019-04-02T01:24:18.155Z,1015.59
2019-04-02T01:25:18.173Z,1015.58
2019-04-02T01:27:18.202Z,1015.54
2019-04-02T01:28:18.217Z,1015.53
2019-04-02T01:29:18.688Z,1015.52
2019-04-02T01:30:18.240Z,1015.52
2019-04-02T01:31:18.255Z,1015.49
2019-04-02T01:32:18.273Z,1015.49
2019-04-02T01:33:18.286Z,1015.48
2019-04-02T01:34:18.306Z,1015.46
2019-04-02T01:35:18.316Z,1015.45
2019-04-02T01:36:18.330Z,1015.45
2019-04-02T01:37:18.339Z,1015.39
2019-04-02T01:38:18.355Z,1015.41
2019-04-02T01:39:18.377Z,1015.37
2019-04-02T01:40:18.383Z,1015.39
2019-04-02T01:41:18.406Z,1015.36
2019-04-02T01:43:18.426Z,1015.4
2019-04-02T01:44:18.444Z,1015.35
2019-04-02T01:45:19.214Z,1015.32
2019-04-02T01:46:18.468Z,1015.34
2019-04-02T01:47:18.486Z,1015.32
2019-04-02T01:48:18.496Z,1015.34
2019-04-02T01:49:18.511Z,1015.32
2019-04-02T01:50:18.529Z,1015.3
2019-04-02T01:51:18.543Z,1015.29
2019-04-02T01:52:18.558Z,1015.28
2019-04-02T01:53:18.568Z,1015.25
2019-04-02T01:54:18.582Z,1015.27
2019-04-02T01:55:18.596Z,1015.22
2019-04-02T01:56:18.615Z,1015.23
2019-04-02T01:57:18.627Z,1015.27
2019-04-02T01:59:18.657Z,1015.2
2019-04-02T02:00:18.667Z,1015.2
2019-04-02T02:01:18.956Z,1015.15
2019-04-02T02:02:19.251Z,1015.13
2019-04-02T02:03:18.713Z,1015.17
2019-04-02T02:04:18.723Z,1015.13
2019-04-02T02:05:18.742Z,1015.14
2019-04-02T02:06:18.762Z,1015.11
2019-04-02T02:07:18.766Z,1015.14
2019-04-02T02:08:18.780Z,1015.13
2019-04-02T02:09:18.794Z,1015.12
2019-04-02T02:10:18.822Z,1015.12
2019-04-02T02:11:18.822Z,1015.08
2019-04-02T02:12:18.836Z,1015.08
2019-04-02T02:13:18.856Z,1015.06
2019-04-02T02:15:18.883Z,1015.01
2019-04-02T02:16:18.898Z,1015.02
2019-04-02T02:17:18.910Z,1015.03
2019-04-02T02:18:18.933Z,1014.96
2019-04-02T02:19:19.636Z,1014.98
2019-04-02T02:20:18.953Z,1014.98
2019-04-02T02:21:18.963Z,1014.94
2019-04-02T02:22:18.981Z,1014.96
2019-04-02T02:23:18.992Z,1014.9
2019-04-02T02:24:19.010Z,1014.87
2019-04-02T02:25:19.019Z,1014.86
2019-04-02T02:26:19.033Z,1014.86
2019-04-02T02:27:19.052Z,1014.84
2019-04-02T02:28:19.066Z,1014.83
2019-04-02T02:30:19.092Z,1014.77
2019-04-02T02:31:19.112Z,1014.78
2019-04-02T02:32:19.123Z,1014.72
2019-04-02T02:33:19.138Z,1014.74
2019-04-02T02:34:19.148Z,1014.72
2019-04-02T02:35:19.167Z,1014.7
2019-04-02T02:36:19.180Z,1014.63
2019-04-02T02:37:19.193Z,1014.63
2019-04-02T02:38:19.202Z,1014.6
2019-04-02T02:39:19.222Z,1014.64
2019-04-02T02:40:19.231Z,1014.61
2019-04-02T02:41:19.250Z,1014.55
2019-04-02T02:42:19.259Z,1014.53
2019-04-02T02:43:19.278Z,1014.5
2019-04-02T02:44:19.289Z,1014.49
2019-04-02T02:45:19.306Z,1014.5
2019-04-02T02:46:19.318Z,1014.46
2019-04-02T02:47:19.340Z,1014.45
2019-04-02T02:48:19.348Z,1014.41
2019-04-02T02:49:19.356Z,1014.43
2019-04-02T02:50:19.753Z,1014.46
2019-04-02T02:51:20.213Z,1014.43
2019-04-02T02:52:20.285Z,1014.36
2019-04-02T02:53:20.248Z,1014.41
2019-04-02T02:54:20.535Z,1014.35
2019-04-02T02:55:20.657Z,1014.35
2019-04-02T02:56:19.455Z,1014.3
2019-04-02T02:57:19.472Z,1014.33
2019-04-02T02:58:19.483Z,1014.35
2019-04-02T02:59:19.504Z,1014.31
2019-04-02T03:00:19.514Z,1014.27
2019-04-02T03:02:19.551Z,1014.28
2019-04-02T03:03:19.552Z,1014.22
2019-04-02T03:04:19.570Z,1014.26
2019-04-02T03:05:19.583Z,1014.24
2019-04-02T03:06:19.599Z,1014.23
2019-04-02T03:07:19.608Z,1014.21
2019-04-02T03:08:19.624Z,1014.17
2019-04-02T03:09:19.640Z,1014.13
2019-04-02T03:10:19.655Z,1014.16
2019-04-02T03:11:19.663Z,1014.12
2019-04-02T03:12:19.683Z,1014.13
2019-04-02T03:13:19.692Z,1014.12
2019-04-02T03:14:19.711Z,1014.03
2019-04-02T03:15:19.719Z,1014.09
2019-04-02T03:16:19.737Z,1014.08
2019-04-02T03:18:19.761Z,1014.03
2019-04-02T03:19:19.782Z,1014.03
2019-04-02T03:20:19.789Z,1014.02
2019-04-02T03:21:19.809Z,1014.04
2019-04-02T03:22:19.819Z,1014.02
2019-04-02T03:23:19.850Z,1013.98
2019-04-02T03:24:19.858Z,1013.96
2019-04-02T03:25:21.472Z,1013.93
2019-04-02T03:26:22.046Z,1013.9
2019-04-02T03:27:22.001Z,1013.94
2019-04-02T03:28:19.904Z,1013.88
2019-04-02T03:29:19.921Z,1013.87
2019-04-02T03:30:19.933Z,1013.9
2019-04-02T03:31:19.945Z,1013.89
2019-04-02T03:32:19.959Z,1013.85
2019-04-02T03:34:23.373Z,1013.85
2019-04-02T03:35:19.997Z,1013.84
2019-04-02T03:36:20.015Z,1013.84
2019-04-02T03:37:20.024Z,1013.81
2019-04-02T03:38:20.039Z,1013.8
2019-04-02T03:39:20.058Z,1013.79
2019-04-02T03:40:20.069Z,1013.79
2019-04-02T03:41:20.083Z,1013.78
2019-04-02T03:42:20.092Z,1013.79
2019-04-02T03:43:20.111Z,1013.76
2019-04-02T03:44:20.126Z,1013.76
2019-04-02T03:45:20.139Z,1013.71
2019-04-02T03:46:20.149Z,1013.77
2019-04-02T03:47:20.172Z,1013.72
2019-04-02T03:48:20.179Z,1013.7
2019-04-02T03:50:20.207Z,1013.67
2019-04-02T03:51:20.217Z,1013.68
2019-04-02T03:52:20.245Z,1013.65
2019-04-02T03:53:23.509Z,1013.66
2019-04-02T03:54:21.406Z,1013.61
2019-04-02T03:55:20.915Z,1013.64
2019-04-02T03:56:20.286Z,1013.62
2019-04-02T03:57:20.305Z,1013.57
2019-04-02T03:58:20.314Z,1013.59
2019-04-02T03:59:20.327Z,1013.6
2019-04-02T04:00:20.342Z,1013.6
2019-04-02T04:01:20.360Z,1013.58
2019-04-02T04:02:20.368Z,1013.56
2019-04-02T04:03:20.387Z,1013.52
2019-04-02T04:05:20.418Z,1013.5
2019-04-02T04:06:20.428Z,1013.49
2019-04-02T04:07:21.759Z,1013.47
2019-04-02T04:08:20.460Z,1013.49
2019-04-02T04:09:20.467Z,1013.5
2019-04-02T04:10:20.482Z,1013.47
2019-04-02T04:11:20.492Z,1013.43
2019-04-02T04:12:20.511Z,1013.39
2019-04-02T04:13:21.266Z,1013.46
2019-04-02T04:14:20.538Z,1013.49
2019-04-02T04:15:20.548Z,1013.44
2019-04-02T04:16:20.563Z,1013.43
2019-04-02T04:17:20.578Z,1013.36
2019-04-02T04:18:20.588Z,1013.4
2019-04-02T04:19:20.606Z,1013.43
2019-04-02T04:20:20.616Z,1013.41
2019-04-02T04:21:21.776Z,1013.36
2019-04-02T04:22:22.538Z,1013.34
2019-04-02T04:23:20.658Z,1013.35
2019-04-02T04:24:20.672Z,1013.34
2019-04-02T04:25:20.690Z,1013.33
2019-04-02T04:26:22.110Z,1013.32
2019-04-02T04:27:20.712Z,1013.34
2019-04-02T04:28:20.725Z,1013.36
2019-04-02T04:29:20.757Z,1013.34
2019-04-02T04:30:20.754Z,1013.33
2019-04-02T04:31:20.775Z,1013.3
2019-04-02T04:32:20.780Z,1013.29
2019-04-02T04:33:20.797Z,1013.27
2019-04-02T04:34:20.807Z,1013.31
2019-04-02T04:35:20.826Z,1013.26
2019-04-02T04:37:20.848Z,1013.22
2019-04-02T04:38:20.865Z,1013.22
2019-04-02T04:39:21.242Z,1013.19
2019-04-02T04:40:20.901Z,1013.2
2019-04-02T04:41:21.086Z,1013.2
2019-04-02T04:42:20.918Z,1013.17
2019-04-02T04:43:20.935Z,1013.19
2019-04-02T04:44:21.474Z,1013.15
2019-04-02T04:45:21.795Z,1013.18
2019-04-02T04:46:20.975Z,1013.16
2019-04-02T04:47:20.991Z,1013.14
2019-04-02T04:48:20.998Z,1013.17
2019-04-02T04:49:21.015Z,1013.13
2019-04-02T04:50:21.029Z,1013.18
2019-04-02T04:51:21.039Z,1013.21
2019-04-02T04:53:21.074Z,1013.17
2019-04-02T04:54:21.090Z,1013.17
2019-04-02T04:55:21.098Z,1013.16
2019-04-02T04:56:21.111Z,1013.12
2019-04-02T04:57:22.147Z,1013.13
2019-04-02T04:58:21.141Z,1013.08
2019-04-02T04:59:22.229Z,1013.06
2019-04-02T05:00:21.168Z,1013.08
2019-04-02T05:01:21.175Z,1013.08
2019-04-02T05:02:21.193Z,1013.13
2019-04-02T05:03:21.206Z,1013.04
2019-04-02T05:04:21.216Z,1013.01
2019-04-02T05:05:21.229Z,1013.01
2019-04-02T05:06:21.244Z,1013.02
2019-04-02T05:07:21.262Z,1013
2019-04-02T05:09:21.288Z,1013.01
2019-04-02T05:10:21.303Z,1013.03
2019-04-02T05:11:21.316Z,1013.02
2019-04-02T05:12:21.325Z,1013.01
2019-04-02T05:13:21.339Z,1013.03
2019-04-02T05:14:21.359Z,1013.06
2019-04-02T05:15:21.367Z,1013.05
2019-04-02T05:16:21.384Z,1013.05
2019-04-02T05:17:21.395Z,1013.1
2019-04-02T05:18:21.425Z,1013.11
2019-04-02T05:19:21.422Z,1013.08
2019-04-02T05:20:21.439Z,1013.17
2019-04-02T05:21:21.673Z,1013.09
2019-04-02T05:22:21.472Z,1013.13
2019-04-02T05:23:21.482Z,1013.16
2019-04-02T05:25:21.512Z,1013.2
2019-04-02T05:26:21.532Z,1013.1
2019-04-02T05:27:21.546Z,1013.03
2019-04-02T05:28:21.563Z,1013.11
2019-04-02T05:29:21.575Z,1013.17
2019-04-02T05:30:21.590Z,1013.26
2019-04-02T05:31:21.612Z,1013.3
2019-04-02T05:32:21.624Z,1013.24
2019-04-02T05:33:21.668Z,1013.21
2019-04-02T05:34:21.662Z,1013.19
2019-04-02T05:35:21.676Z,1012.99
2019-04-02T05:36:22.252Z,1013.09
2019-04-02T05:37:21.869Z,1013.05
2019-04-02T05:38:21.734Z,1012.95
2019-04-02T05:40:21.770Z,1013.04
2019-04-02T05:41:21.787Z,1013.13
2019-04-02T05:42:21.801Z,1013.12
2019-04-02T05:43:21.819Z,1013.19
2019-04-02T05:44:21.837Z,1013.14
2019-04-02T05:45:21.859Z,1013.19
2019-04-02T05:46:21.874Z,1013.19
2019-04-02T05:47:23.653Z,1013.22
2019-04-02T05:48:21.911Z,1013.13
2019-04-02T05:49:21.934Z,1013.04
2019-04-02T05:50:21.949Z,1013.07
2019-04-02T05:51:21.972Z,1013.09
2019-04-02T05:52:21.991Z,1013.08
2019-04-02T05:53:22.216Z,1013.09
2019-04-02T05:54:22.026Z,1013.09
2019-04-02T05:55:22.261Z,1013.11
2019-04-02T05:56:22.068Z,1013.17
2019-04-02T05:57:22.088Z,1013.25
2019-04-02T05:58:22.104Z,1013.24
2019-04-02T05:59:22.128Z,1013.2
2019-04-02T06:00:22.145Z,1013.24
2019-04-02T06:01:22.169Z,1013.31
2019-04-02T06:02:22.187Z,1013.45
2019-04-02T06:03:22.212Z,1013.37
2019-04-02T06:04:22.229Z,1013.45
2019-04-02T06:05:22.255Z,1013.4
2019-04-02T06:06:22.276Z,1013.4
2019-04-02T06:07:22.297Z,1013.41
2019-04-02T06:08:22.323Z,1013.42
2019-04-02T06:09:22.345Z,1013.51
2019-04-02T06:10:22.368Z,1013.55
2019-04-02T06:12:22.415Z,1013.57
2019-04-02T06:13:23.715Z,1013.55
2019-04-02T06:14:22.462Z,1013.48
2019-04-02T06:15:22.484Z,1013.54
2019-04-02T06:16:23.201Z,1013.54
2019-04-02T06:17:22.859Z,1013.49
2019-04-02T06:18:23.452Z,1013.48
2019-04-02T06:19:22.584Z,1013.5
2019-04-02T06:20:22.610Z,1013.56
2019-04-02T06:21:22.629Z,1013.53
2019-04-02T06:22:22.658Z,1013.52
2019-04-02T06:23:22.680Z,1013.51
2019-04-02T06:24:22.710Z,1013.53
2019-04-02T06:25:22.736Z,1013.54
2019-04-02T06:26:22.758Z,1013.58
2019-04-02T06:28:22.806Z,1013.65
2019-04-02T06:29:22.832Z,1013.59
2019-04-02T06:30:24.177Z,1013.66
2019-04-02T06:31:22.883Z,1013.7
2019-04-02T06:32:22.912Z,1013.73
2019-04-02T06:33:22.935Z,1013.74
2019-04-02T06:34:22.965Z,1013.77
2019-04-02T06:35:22.996Z,1013.84
2019-04-02T06:36:23.017Z,1013.82
2019-04-02T06:37:23.039Z,1013.78
2019-04-02T06:38:23.072Z,1013.79
2019-04-02T06:39:23.094Z,1013.84
2019-04-02T06:40:23.118Z,1013.89
2019-04-02T06:41:23.150Z,1013.9
2019-04-02T06:42:23.172Z,1013.91
2019-04-02T06:44:24.659Z,1013.92
2019-04-02T06:45:24.449Z,1013.87
2019-04-02T06:46:24.541Z,1013.88
2019-04-02T06:47:26.492Z,1013.92
2019-04-02T06:48:24.116Z,1013.95
2019-04-02T06:49:24.810Z,1013.97
2019-04-02T06:50:23.679Z,1013.99
2019-04-02T06:51:23.882Z,1014
2019-04-02T06:52:23.440Z,1013.98
2019-04-02T06:53:23.472Z,1013.92
2019-04-02T06:54:23.498Z,1013.94
2019-04-02T06:55:23.520Z,1013.95
2019-04-02T06:56:26.007Z,1013.84
2019-04-02T06:57:23.576Z,1013.82
2019-04-02T06:58:23.606Z,1013.84
2019-04-02T07:00:23.664Z,1013.65
2019-04-02T07:01:32.035Z,1013.72
2019-04-02T07:02:23.713Z,1013.59
2019-04-02T07:03:23.747Z,1013.51
2019-04-02T07:04:23.769Z,1013.47
2019-04-02T07:05:23.800Z,1013.46
2019-04-02T07:06:23.826Z,1013.44
2019-04-02T07:07:23.857Z,1013.41
2019-04-02T07:08:23.879Z,1013.35
2019-04-02T07:09:23.919Z,1013.35
2019-04-02T07:10:23.935Z,1013.27
2019-04-02T07:11:23.968Z,1013.24
2019-04-02T07:12:24.001Z,1013.2
2019-04-02T07:13:25.555Z,1013.19
2019-04-02T07:15:24.086Z,1013.14
2019-04-02T07:16:24.103Z,1013.14
2019-04-02T07:17:24.134Z,1013.1
2019-04-02T07:18:24.162Z,1013.01
2019-04-02T07:19:24.192Z,1013.05
2019-04-02T07:20:24.214Z,1012.96
2019-04-02T07:21:24.243Z,1012.98
2019-04-02T07:22:24.277Z,1012.95
2019-04-02T07:23:24.302Z,1012.88
2019-04-02T07:24:24.331Z,1012.86
2019-04-02T07:25:24.355Z,1012.82
2019-04-02T07:26:24.387Z,1012.79
2019-04-02T07:27:24.410Z,1012.8
2019-04-02T07:28:24.438Z,1012.78
2019-04-02T07:29:24.466Z,1012.79
2019-04-02T07:30:24.498Z,1012.74
2019-04-02T07:31:24.527Z,1012.68
2019-04-02T07:32:24.917Z,1012.6
2019-04-02T07:33:25.099Z,1012.54
2019-04-02T07:34:24.604Z,1012.48
2019-04-02T07:35:24.637Z,1012.43
2019-04-02T07:36:24.661Z,1012.42
2019-04-02T07:37:24.995Z,1012.34
2019-04-02T07:38:24.716Z,1012.31
2019-04-02T07:39:24.743Z,1012.34
2019-04-02T07:40:24.779Z,1012.3
2019-04-02T07:41:24.802Z,1012.27
2019-04-02T07:42:24.825Z,1012.16
2019-04-02T07:43:24.853Z,1012.09
2019-04-02T07:44:24.881Z,1012.11
2019-04-02T07:45:24.912Z,1012.11
2019-04-02T07:47:24.969Z,1012.15
2019-04-02T07:48:24.996Z,1012.17
2019-04-02T07:49:25.018Z,1012.15
2019-04-02T07:50:25.053Z,1012.15
2019-04-02T07:51:25.074Z,1012.1
2019-04-02T07:52:25.548Z,1012.16
2019-04-02T07:53:25.319Z,1012.11
2019-04-02T07:54:25.159Z,1012.08
2019-04-02T07:55:25.183Z,1011.98
2019-04-02T07:56:25.215Z,1012.03
2019-04-02T07:57:25.237Z,1011.99
2019-04-02T07:58:25.264Z,1011.84
2019-04-02T07:59:25.296Z,1011.8
2019-04-02T08:00:25.318Z,1011.74
2019-04-02T08:01:26.233Z,1011.7
2019-04-02T08:03:25.404Z,1011.62
2019-04-02T08:04:25.426Z,1011.53
2019-04-02T08:05:25.459Z,1011.61
2019-04-02T08:06:25.480Z,1011.5
2019-04-02T08:07:25.505Z,1011.52
2019-04-02T08:08:25.532Z,1011.45
2019-04-02T08:09:25.564Z,1011.44
2019-04-02T08:10:25.586Z,1011.46
2019-04-02T08:11:25.617Z,1011.41
2019-04-02T08:12:25.639Z,1011.41
2019-04-02T08:13:25.673Z,1011.46
2019-04-02T08:14:25.694Z,1011.42
2019-04-02T08:15:25.722Z,1011.44
2019-04-02T08:16:27.513Z,1011.44
2019-04-02T08:17:25.775Z,1011.45
2019-04-02T08:19:25.828Z,1011.34
2019-04-02T08:20:25.852Z,1011.34
2019-04-02T08:21:25.881Z,1011.35
2019-04-02T08:22:26.292Z,1011.29
2019-04-02T08:23:25.930Z,1011.26
2019-04-02T08:24:25.957Z,1011.27
2019-04-02T08:25:27.410Z,1011.17
2019-04-02T08:26:26.011Z,1011.17
2019-04-02T08:27:26.035Z,1011.15
2019-04-02T08:28:26.069Z,1011.13
2019-04-02T08:29:26.085Z,1011.13
2019-04-02T08:30:26.115Z,1011.17
2019-04-02T08:31:26.138Z,1011.16
2019-04-02T08:32:26.169Z,1011.15
2019-04-02T08:33:26.194Z,1011.16
2019-04-02T08:35:26.241Z,1011.18
2019-04-02T08:36:26.274Z,1011.13
2019-04-02T08:37:26.292Z,1011.08
2019-04-02T08:38:26.325Z,1011.12
2019-04-02T08:39:26.367Z,1011.08
2019-04-02T08:40:26.369Z,1011.09
2019-04-02T08:41:26.860Z,1011.1
2019-04-02T08:42:28.020Z,1011.13
2019-04-02T08:43:27.200Z,1011.09
2019-04-02T08:44:26.473Z,1011.06
2019-04-02T08:45:27.168Z,1011.07
2019-04-02T08:46:26.533Z,1011.03
2019-04-02T08:47:26.563Z,1011.04
2019-04-02T08:48:26.575Z,1011.02
2019-04-02T08:50:27.608Z,1011.02
2019-04-02T08:51:26.665Z,1010.98
2019-04-02T08:52:26.683Z,1010.97
2019-04-02T08:53:26.708Z,1010.91
2019-04-02T08:54:26.736Z,1010.89
2019-04-02T08:55:26.759Z,1010.92
2019-04-02T08:56:26.781Z,1010.89
2019-04-02T08:57:26.811Z,1010.89
2019-04-02T08:58:26.832Z,1010.85
2019-04-02T08:59:26.865Z,1010.87
2019-04-02T09:00:26.887Z,1010.83
2019-04-02T09:01:26.908Z,1010.83
2019-04-02T09:02:26.937Z,1010.78
2019-04-02T09:03:26.965Z,1010.83
2019-04-02T09:04:26.984Z,1010.74
2019-04-02T09:05:32.622Z,1010.68
2019-04-02T09:06:27.036Z,1010.67
2019-04-02T09:07:27.065Z,1010.68
2019-04-02T09:08:29.049Z,1010.65
2019-04-02T09:09:27.116Z,1010.61
2019-04-02T09:10:27.135Z,1010.63
2019-04-02T09:11:28.918Z,1010.58
2019-04-02T09:12:27.186Z,1010.71
2019-04-02T09:13:28.906Z,1010.56
2019-04-02T09:14:27.236Z,1010.58
2019-04-02T09:15:27.267Z,1010.59
2019-04-02T09:16:27.290Z,1010.55
2019-04-02T09:17:27.414Z,1010.54
2019-04-02T09:18:27.335Z,1010.5
2019-04-02T09:19:27.361Z,1010.46
2019-04-02T09:20:27.390Z,1010.42
2019-04-02T09:22:27.440Z,1010.37
2019-04-02T09:23:27.467Z,1010.4
2019-04-02T09:24:27.485Z,1010.34
2019-04-02T09:25:27.521Z,1010.34
2019-04-02T09:26:27.543Z,1010.35
2019-04-02T09:27:27.565Z,1010.3
2019-04-02T09:28:27.590Z,1010.28
2019-04-02T09:29:27.610Z,1010.31
2019-04-02T09:30:27.640Z,1010.28
2019-04-02T09:31:27.667Z,1010.26
2019-04-02T09:32:35.794Z,1010.22
2019-04-02T09:33:27.719Z,1010.22
2019-04-02T09:34:27.742Z,1010.19
2019-04-02T09:35:27.840Z,1010.21
2019-04-02T09:36:27.785Z,1010.17
2019-04-02T09:38:27.835Z,1010.11
2019-04-02T09:39:27.863Z,1010.13
2019-04-02T09:40:27.889Z,1010.06
2019-04-02T09:41:27.909Z,1010.02
2019-04-02T09:42:27.934Z,1010.01
2019-04-02T09:43:27.959Z,1010.01
2019-04-02T09:44:27.988Z,1010
2019-04-02T09:45:28.009Z,1009.95
2019-04-02T09:46:28.037Z,1009.95
2019-04-02T09:47:28.062Z,1009.97
2019-04-02T09:48:28.083Z,1009.91
2019-04-02T09:49:28.113Z,1009.91
2019-04-02T09:50:28.133Z,1009.95
2019-04-02T09:51:28.159Z,1009.94
2019-04-02T09:52:28.183Z,1009.87
2019-04-02T09:54:28.232Z,1009.78
2019-04-02T09:55:28.261Z,1009.8
2019-04-02T09:56:28.282Z,1009.81
2019-04-02T09:57:28.310Z,1009.82
2019-04-02T09:58:28.336Z,1009.81
2019-04-02T09:59:28.360Z,1009.8
2019-04-02T10:00:28.381Z,1009.75
2019-04-02T10:01:30.471Z,1009.76
2019-04-02T10:02:28.436Z,1009.77
2019-04-02T10:03:28.457Z,1009.76
2019-04-02T10:04:28.486Z,1009.73
2019-04-02T10:05:33.669Z,1009.66
2019-04-02T10:06:28.529Z,1009.68
2019-04-02T10:07:28.558Z,1009.64
2019-04-02T10:08:28.578Z,1009.6
2019-04-02T10:10:28.632Z,1009.61
2019-04-02T10:11:28.657Z,1009.59
2019-04-02T10:12:30.923Z,1009.64
2019-04-02T10:13:28.701Z,1009.58
2019-04-02T10:14:28.726Z,1009.57
2019-04-02T10:15:28.750Z,1009.5
2019-04-02T10:16:28.780Z,1009.52
2019-04-02T10:17:28.800Z,1009.51
2019-04-02T10:18:28.831Z,1009.49
2019-04-02T10:19:28.853Z,1009.41
2019-04-02T10:20:28.873Z,1009.44
2019-04-02T10:21:28.902Z,1009.41
2019-04-02T10:22:28.922Z,1009.44
2019-04-02T10:23:28.947Z,1009.32
2019-04-02T10:25:29.008Z,1009.27
2019-04-02T10:26:29.022Z,1009.3
2019-04-02T10:27:29.049Z,1009.27
2019-04-02T10:28:29.074Z,1009.23
2019-04-02T10:29:29.108Z,1009.24
2019-04-02T10:30:29.118Z,1009.3
2019-04-02T10:31:29.147Z,1009.18
2019-04-02T10:32:29.166Z,1009.23
2019-04-02T10:33:29.196Z,1009.18
2019-04-02T10:34:29.214Z,1009.13
2019-04-02T10:35:29.242Z,1009.15
2019-04-02T10:36:29.268Z,1009.06
2019-04-02T10:37:29.805Z,1009.05
2019-04-02T10:38:29.314Z,1009.07
2019-04-02T10:39:29.335Z,1009.08
2019-04-02T10:40:32.439Z,1009.06
2019-04-02T10:41:29.389Z,1009.05
2019-04-02T10:42:29.409Z,1008.95
2019-04-02T10:43:29.443Z,1008.91
2019-04-02T10:44:29.452Z,1008.9
2019-04-02T10:45:29.492Z,1008.9
2019-04-02T10:46:29.500Z,1008.89
2019-04-02T10:47:29.532Z,1008.92
2019-04-02T10:48:29.546Z,1008.84
2019-04-02T10:49:29.591Z,1008.95
2019-04-02T10:50:29.605Z,1008.86
2019-04-02T10:51:29.619Z,1008.9
2019-04-02T10:52:29.644Z,1008.93
2019-04-02T10:53:29.667Z,1008.86
2019-04-02T10:54:29.687Z,1008.91
2019-04-02T10:55:29.718Z,1008.82
2019-04-02T10:57:30.259Z,1008.81
2019-04-02T10:58:33.311Z,1008.78
2019-04-02T10:59:29.806Z,1008.76
2019-04-02T11:00:29.829Z,1008.7
2019-04-02T11:01:29.848Z,1008.68
2019-04-02T11:02:30.917Z,1008.7
2019-04-02T11:03:29.896Z,1008.68
2019-04-02T11:04:30.108Z,1008.71
2019-04-02T11:05:29.939Z,1008.68
2019-04-02T11:06:29.966Z,1008.63
2019-04-02T11:07:29.986Z,1008.65
2019-04-02T11:08:30.021Z,1008.61
2019-04-02T11:09:30.030Z,1008.58
2019-04-02T11:10:30.074Z,1008.6
2019-04-02T11:11:30.075Z,1008.53
2019-04-02T11:13:30.124Z,1008.57
2019-04-02T11:14:30.245Z,1008.53
2019-04-02T11:15:30.172Z,1008.56
2019-04-02T11:16:30.187Z,1008.48
2019-04-02T11:17:30.210Z,1008.49
2019-04-02T11:18:30.236Z,1008.47
2019-04-02T11:19:30.587Z,1008.41
2019-04-02T11:20:30.277Z,1008.38
2019-04-02T11:21:30.303Z,1008.37
2019-04-02T11:22:30.326Z,1008.33
2019-04-02T11:23:30.352Z,1008.31
2019-04-02T11:24:30.367Z,1008.27
2019-04-02T11:25:31.629Z,1008.26
2019-04-02T11:26:30.411Z,1008.27
2019-04-02T11:27:30.439Z,1008.21
2019-04-02T11:29:30.483Z,1008.17
2019-04-02T11:30:30.504Z,1008.18
2019-04-02T11:31:30.523Z,1008.17
2019-04-02T11:32:30.544Z,1008.14
2019-04-02T11:33:30.568Z,1008.22
2019-04-02T11:34:30.593Z,1008.15
2019-04-02T11:35:30.615Z,1008.15
2019-04-02T11:36:30.637Z,1008.1
2019-04-02T11:37:30.655Z,1008.07
2019-04-02T11:38:30.682Z,1008.14
2019-04-02T11:39:30.700Z,1008.1
2019-04-02T11:40:30.728Z,1008.13
2019-04-02T11:41:30.745Z,1008.12
2019-04-02T11:42:30.771Z,1008.07
2019-04-02T11:43:30.788Z,1008.06
2019-04-02T11:45:30.837Z,1008.03
2019-04-02T11:46:30.887Z,1008.07
2019-04-02T11:47:30.877Z,1008.05
2019-04-02T11:48:31.121Z,1008.04
2019-04-02T11:49:31.239Z,1007.99
2019-04-02T11:50:30.948Z,1007.95
2019-04-02T11:51:30.965Z,1007.91
2019-04-02T11:52:30.992Z,1007.94
2019-04-02T11:53:31.009Z,1007.87
2019-04-02T11:54:31.035Z,1007.87
2019-04-02T11:55:31.054Z,1007.88
2019-04-02T11:56:31.079Z,1007.84
2019-04-02T11:57:31.166Z,1007.83
2019-04-02T11:58:31.124Z,1007.73
2019-04-02T12:00:31.174Z,1007.77
2019-04-02T12:01:31.185Z,1007.78
2019-04-02T12:02:31.212Z,1007.71
2019-04-02T12:03:31.237Z,1007.77
2019-04-02T12:04:31.256Z,1007.7
2019-04-02T12:05:31.274Z,1007.76
2019-04-02T12:06:32.870Z,1007.63
2019-04-02T12:07:31.322Z,1007.58
2019-04-02T12:08:31.341Z,1007.63
2019-04-02T12:09:43.869Z,1007.64
2019-04-02T12:10:31.388Z,1007.58
2019-04-02T12:11:31.411Z,1007.6
2019-04-02T12:12:31.432Z,1007.63
2019-04-02T12:13:32.724Z,1007.6
2019-04-02T12:14:32.530Z,1007.58
2019-04-02T12:15:47.669Z,1007.47
2019-04-02T12:16:31.516Z,1007.45
2019-04-02T12:17:31.539Z,1007.43
2019-04-02T12:18:31.591Z,1007.46
2019-04-02T12:19:31.581Z,1007.42
2019-04-02T12:20:31.608Z,1007.4
2019-04-02T12:21:31.625Z,1007.47
2019-04-02T12:22:31.653Z,1007.38
2019-04-02T12:23:31.670Z,1007.33
2019-04-02T12:24:31.691Z,1007.32
2019-04-02T12:25:31.713Z,1007.33
2019-04-02T12:26:31.740Z,1007.29
2019-04-02T12:27:31.790Z,1007.23
2019-04-02T12:28:31.778Z,1007.24
2019-04-02T12:29:31.807Z,1007.25
2019-04-02T12:30:31.822Z,1007.25
2019-04-02T12:32:31.868Z,1007.23
2019-04-02T12:33:31.895Z,1007.19
2019-04-02T12:34:31.917Z,1007.17
2019-04-02T12:35:31.937Z,1007.15
2019-04-02T12:36:31.959Z,1007.09
2019-04-02T12:37:31.976Z,1007.04
2019-04-02T12:38:32.002Z,1007.01
2019-04-02T12:39:32.025Z,1007
2019-04-02T12:40:32.042Z,1006.97
2019-04-02T12:41:32.069Z,1007
2019-04-02T12:42:32.096Z,1006.88
2019-04-02T12:43:33.975Z,1006.93
2019-04-02T12:44:32.135Z,1006.93
2019-04-02T12:45:32.152Z,1006.86
2019-04-02T12:46:32.180Z,1006.87
2019-04-02T12:48:32.218Z,1006.84
2019-04-02T12:49:32.243Z,1006.8